NCAR-RAP Real-Time Weather Data

Output produced by METARs form (12 May 2021  11:13 UTC)
found at http://weather.rap.ucar.edu/surface/
 
KGLD 121053Z AUTO 19006KT 7SM CLR 01/00 A3034 RMK AO2 SLP284 T00110000
KGLD 120953Z AUTO 21004KT 7SM CLR 01/00 A3033 RMK AO2 SLP282 T00060000
KGLD 120941Z AUTO 21005KT 7SM CLR 02/01 A3033 RMK AO2 T00220011
KGLD 120934Z AUTO 22005KT 2 1/2SM BR CLR 01/01 A3033 RMK AO2 T00110006
KGLD 120914Z AUTO 23004KT 4SM BR CLR 02/01 A3034 RMK AO2 T00170006
KGLD 120903Z AUTO 00000KT 2SM BR CLR 01/00 A3034 RMK AO2 T00060000
KGLD 120853Z AUTO 00000KT 3SM BR CLR 01/01 A3034 RMK AO2 SLP282 T00110006 58004
KGLD 120753Z AUTO 26005KT 9SM FEW070 04/03 A3034 RMK AO2 SLP279 T00390028
KGLD 120653Z AUTO 00000KT 10SM OVC065 05/04 A3035 RMK AO2 SLP280 T00500039 400780039
KGLD 120553Z AUTO 30005KT 10SM OVC065 06/04 A3035 RMK AO2 SLP278 T00560039 10078 20056 51005
KGLD 120453Z AUTO 20004KT 10SM OVC060 06/04 A3035 RMK AO2 SLP278 T00610039
KGLD 120353Z AUTO 20006KT 10SM OVC060 07/04 A3034 RMK AO2 SLP279 T00670044
KGLD 120253Z AUTO 19005KT 10SM OVC055 07/04 A3033 RMK AO2 SLP275 T00670044 53016
KGLD 120153Z AUTO 20003KT 10SM OVC055 07/04 A3031 RMK AO2 SLP266 T00720044
KGLD 120053Z AUTO 00000KT 10SM FEW039 OVC050 07/04 A3029 RMK AO2 SLP263 T00720039
KGLD 120010Z AUTO 11004KT 10SM SCT026 BKN032 OVC050 07/04 A3028 RMK AO2 T00720044
KGLD 112353Z AUTO 12006KT 10SM OVC024 07/04 A3028 RMK AO2 SLP256 60008 T00720044 10078 20061 53004
KGLD 112317Z AUTO 11008KT 10SM OVC016 07/04 A3027 RMK AO2 T00670039
KGLD 112304Z AUTO 11007KT 10SM BKN014 OVC020 07/04 A3027 RMK AO2 T00670044
KGLD 112253Z AUTO 12008KT 10SM BKN016 OVC022 07/04 A3027 RMK AO2 SLP254 T00670044
KGLD 112228Z AUTO 09009KT 10SM FEW017 BKN026 OVC030 07/04 A3026 RMK AO2 T00670044
KGLD 112216Z AUTO 10009KT 10SM SCT022 OVC030 07/04 A3026 RMK AO2 T00720039
KGLD 112153Z AUTO 12009KT 10SM OVC021 07/04 A3027 RMK AO2 RAE07 SLP252 P0000 T00670039
KGLD 112125Z AUTO 10008KT 10SM BKN021 OVC041 07/04 A3026 RMK AO2 RAE07 P0000 T00720039
KGLD 112112Z AUTO 09010KT 10SM SCT027 OVC040 07/04 A3026 RMK AO2 RAE07 P0000 T00670039
KGLD 112053Z AUTO 10011G16KT 3SM -RA BR FEW013 FEW018 OVC026 06/04 A3027 RMK AO2 RAB20 SLP254 P0007 60008 T00610044 55001
KGLD 112025Z AUTO 14008KT 9SM -RA BKN017 BKN025 OVC050 07/04 A3026 RMK AO2 RAB20 P0000 T00720044